createdAt,value
2022-08-20T00:04:56.434Z,109.69
2022-08-20T00:20:01.951Z,109.82
2022-08-20T00:35:08.311Z,109.61
2022-08-20T00:50:25.041Z,109.57
2022-08-20T01:05:30.943Z,109.65
2022-08-20T01:20:41.134Z,109.65
2022-08-20T01:35:47.084Z,110.05
2022-08-20T01:50:59.055Z,110.33
2022-08-20T02:06:04.632Z,110.10
2022-08-20T02:21:10.261Z,110.00
2022-08-20T02:36:18.122Z,109.65
2022-08-20T02:51:30.479Z,109.96
2022-08-20T03:06:36.283Z,110.17
2022-08-20T03:21:41.884Z,109.85
2022-08-20T03:36:47.632Z,109.66
2022-08-20T03:51:57.702Z,109.32
2022-08-20T04:07:11.943Z,109.10
2022-08-20T04:22:17.536Z,109.23
2022-08-20T04:37:24.583Z,109.01
2022-08-20T04:52:33.146Z,108.45
2022-08-20T05:07:42.522Z,108.80
2022-08-20T05:22:48.063Z,109.97
2022-08-20T05:37:54.292Z,110.68
2022-08-20T05:53:01.710Z,109.96
2022-08-20T06:08:09.619Z,110.17
2022-08-20T06:23:15.390Z,110.61
2022-08-20T06:38:21.431Z,110.77
2022-08-20T06:53:26.958Z,111.02
2022-08-20T07:08:32.473Z,111.08
2022-08-20T07:23:38.059Z,110.85
2022-08-20T07:38:46.224Z,110.17
2022-08-20T07:53:53.104Z,109.49
2022-08-20T08:08:59.907Z,107.60
2022-08-20T08:24:06.416Z,104.98
2022-08-20T08:39:12.441Z,103.45
2022-08-20T08:54:21.426Z,104.04
2022-08-20T09:09:32.603Z,98.62
2022-08-20T09:24:38.183Z,93.09
2022-08-20T09:39:44.017Z,94.52
2022-08-20T09:54:50.095Z,100.70
2022-08-20T10:09:55.741Z,100.72
2022-08-20T10:25:01.290Z,95.52
2022-08-20T10:40:09.327Z,97.94
2022-08-20T10:55:15.451Z,91.59
2022-08-20T11:10:21.060Z,88.14
2022-08-20T11:25:27.087Z,92.36
2022-08-20T11:40:33.059Z,90.16
2022-08-20T11:55:39.147Z,89.09
2022-08-20T12:10:44.677Z,88.67
2022-08-20T12:25:50.313Z,86.94
2022-08-20T12:40:55.863Z,80.00
2022-08-20T12:56:02.775Z,79.65
2022-08-20T13:11:08.278Z,80.25
2022-08-20T13:26:14.492Z,80.71
2022-08-20T13:41:20.112Z,81.73
2022-08-20T13:56:25.604Z,81.11
2022-08-20T14:11:31.251Z,85.00
2022-08-20T14:26:37.149Z,86.83
2022-08-20T14:41:42.625Z,83.27
2022-08-20T14:56:48.153Z,83.60
2022-08-20T15:11:53.641Z,85.34
2022-08-20T15:26:59.520Z,82.14
2022-08-20T15:42:06.575Z,82.34
2022-08-20T15:57:15.543Z,82.82
2022-08-20T16:12:29.022Z,83.52
2022-08-20T16:27:44.894Z,82.47
2022-08-20T16:42:52.769Z,80.50
2022-08-20T16:57:58.833Z,79.74
2022-08-20T17:13:08.114Z,80.50
2022-08-20T17:28:19.652Z,81.25
2022-08-20T17:43:29.509Z,82.57
2022-08-20T17:58:42.001Z,83.83
2022-08-20T18:14:22.373Z,87.13
2022-08-20T18:29:31.546Z,90.57
2022-08-20T18:44:44.397Z,94.81
2022-08-20T19:00:07.552Z,94.59
2022-08-20T19:15:17.876Z,96.67
2022-08-20T19:30:36.861Z,98.96
2022-08-20T19:45:46.819Z,100.18
2022-08-20T20:00:54.325Z,102.72
2022-08-20T20:16:04.146Z,101.05
2022-08-20T20:31:12.286Z,101.28
2022-08-20T20:46:20.356Z,101.39
2022-08-20T21:01:41.222Z,102.65
2022-08-20T21:16:51.914Z,103.24
2022-08-20T21:31:57.571Z,103.49
2022-08-20T21:47:04.432Z,103.47
2022-08-20T22:02:10.991Z,103.86
2022-08-20T22:17:17.194Z,103.95
2022-08-20T22:32:22.801Z,104.20
2022-08-20T22:47:44.605Z,104.27
2022-08-20T23:02:53.728Z,104.18
2022-08-20T23:18:06.954Z,105.55
2022-08-20T23:33:12.532Z,105.12
2022-08-20T23:48:18.395Z,106.23
